sensor_id;sensor_type;location;lat;lon;timestamp;pressure;altitude;pressure_sealevel;temperature;humidity
19751;BME280;4663;49.120;9.730;2023-05-03T00:01:54;98894.97;;;7.90;88.84
19751;BME280;4663;49.120;9.730;2023-05-03T00:04:19;98895.56;;;8.05;88.30
19751;BME280;4663;49.120;9.730;2023-05-03T00:06:47;98896.31;;;8.18;87.14
19751;BME280;4663;49.120;9.730;2023-05-03T00:09:12;98899.69;;;8.20;87.63
19751;BME280;4663;49.120;9.730;2023-05-03T00:11:38;98899.47;;;8.01;87.71
19751;BME280;4663;49.120;9.730;2023-05-03T00:14:03;98905.78;;;7.88;88.36
19751;BME280;4663;49.120;9.730;2023-05-03T00:16:29;98904.34;;;7.84;88.42
19751;BME280;4663;49.120;9.730;2023-05-03T00:18:54;98906.50;;;7.67;89.47
19751;BME280;4663;49.120;9.730;2023-05-03T00:21:20;98896.44;;;7.82;88.72
19751;BME280;4663;49.120;9.730;2023-05-03T00:23:46;98905.81;;;7.65;88.84
19751;BME280;4663;49.120;9.730;2023-05-03T00:26:11;98901.41;;;7.76;89.08
19751;BME280;4663;49.120;9.730;2023-05-03T00:28:36;98893.16;;;7.67;88.66
19751;BME280;4663;49.120;9.730;2023-05-03T00:31:09;98902.88;;;7.21;91.63
19751;BME280;4663;49.120;9.730;2023-05-03T00:33:35;98894.34;;;7.52;90.76
19751;BME280;4663;49.120;9.730;2023-05-03T00:36:11;98894.75;;;7.81;88.29
19751;BME280;4663;49.120;9.730;2023-05-03T00:38:38;98888.78;;;7.66;88.55
19751;BME280;4663;49.120;9.730;2023-05-03T00:41:04;98884.66;;;7.62;88.55
19751;BME280;4663;49.120;9.730;2023-05-03T00:43:31;98879.81;;;7.79;87.86
19751;BME280;4663;49.120;9.730;2023-05-03T00:45:58;98885.50;;;7.74;87.86
19751;BME280;4663;49.120;9.730;2023-05-03T00:48:24;98885.88;;;7.69;88.47
19751;BME280;4663;49.120;9.730;2023-05-03T00:50:49;98881.75;;;7.54;88.55
19751;BME280;4663;49.120;9.730;2023-05-03T00:53:15;98872.88;;;7.53;88.79
19751;BME280;4663;49.120;9.730;2023-05-03T00:55:42;98880.72;;;7.43;89.42
19751;BME280;4663;49.120;9.730;2023-05-03T00:58:07;98874.31;;;7.46;89.36
19751;BME280;4663;49.120;9.730;2023-05-03T01:00:33;98879.09;;;7.65;87.68
19751;BME280;4663;49.120;9.730;2023-05-03T01:02:58;98886.59;;;7.60;88.37
19751;BME280;4663;49.120;9.730;2023-05-03T01:05:24;98888.47;;;6.99;91.87
19751;BME280;4663;49.120;9.730;2023-05-03T01:08:10;98881.16;;;7.14;91.04
19751;BME280;4663;49.120;9.730;2023-05-03T01:10:50;98879.69;;;7.10;91.73
19751;BME280;4663;49.120;9.730;2023-05-03T01:13:23;98886.78;;;7.34;91.17
19751;BME280;4663;49.120;9.730;2023-05-03T01:16:05;98878.22;;;7.65;89.02
19751;BME280;4663;49.120;9.730;2023-05-03T01:18:37;98874.78;;;7.51;88.65
19751;BME280;4663;49.120;9.730;2023-05-03T01:21:04;98872.44;;;7.24;91.34
19751;BME280;4663;49.120;9.730;2023-05-03T01:23:44;98877.56;;;7.38;90.17
19751;BME280;4663;49.120;9.730;2023-05-03T01:26:27;98878.81;;;7.46;89.11
19751;BME280;4663;49.120;9.730;2023-05-03T01:28:53;98876.13;;;7.57;88.49
19751;BME280;4663;49.120;9.730;2023-05-03T01:31:40;98874.03;;;7.38;88.83
19751;BME280;4663;49.120;9.730;2023-05-03T01:36:42;98860.53;;;7.16;89.60
19751;BME280;4663;49.120;9.730;2023-05-03T01:39:13;98872.88;;;7.06;90.39
19751;BME280;4663;49.120;9.730;2023-05-03T01:41:41;98859.22;;;7.34;88.83
19751;BME280;4663;49.120;9.730;2023-05-03T01:44:08;98853.81;;;7.11;89.77
19751;BME280;4663;49.120;9.730;2023-05-03T01:46:43;98859.22;;;7.34;89.71
19751;BME280;4663;49.120;9.730;2023-05-03T01:49:09;98863.38;;;6.90;90.87
19751;BME280;4663;49.120;9.730;2023-05-03T01:51:34;98857.06;;;6.91;90.98
19751;BME280;4663;49.120;9.730;2023-05-03T01:54:00;98857.44;;;6.98;90.39
19751;BME280;4663;49.120;9.730;2023-05-03T01:56:25;98857.34;;;7.11;89.31
19751;BME280;4663;49.120;9.730;2023-05-03T01:58:50;98852.75;;;7.13;88.74
19751;BME280;4663;49.120;9.730;2023-05-03T02:01:16;98859.31;;;7.21;89.25
19751;BME280;4663;49.120;9.730;2023-05-03T02:03:41;98858.94;;;7.14;88.55
19751;BME280;4663;49.120;9.730;2023-05-03T02:06:07;98855.09;;;6.82;89.72
19751;BME280;4663;49.120;9.730;2023-05-03T02:08:32;98861.47;;;6.68;90.97
19751;BME280;4663;49.120;9.730;2023-05-03T02:10:58;98868.00;;;7.00;90.55
19751;BME280;4663;49.120;9.730;2023-05-03T02:13:23;98870.97;;;6.84;90.94
19751;BME280;4663;49.120;9.730;2023-05-03T02:15:48;98866.00;;;6.79;90.09
19751;BME280;4663;49.120;9.730;2023-05-03T02:18:14;98866.41;;;6.97;89.83
19751;BME280;4663;49.120;9.730;2023-05-03T02:20:44;98870.06;;;7.08;88.75
19751;BME280;4663;49.120;9.730;2023-05-03T02:23:09;98880.31;;;6.89;89.11
19751;BME280;4663;49.120;9.730;2023-05-03T02:25:34;98870.09;;;6.72;90.11
19751;BME280;4663;49.120;9.730;2023-05-03T02:28:00;98867.84;;;6.90;89.89
19751;BME280;4663;49.120;9.730;2023-05-03T02:30:25;98869.19;;;6.96;90.78
19751;BME280;4663;49.120;9.730;2023-05-03T02:32:51;98863.81;;;6.48;91.51
19751;BME280;4663;49.120;9.730;2023-05-03T02:35:16;98870.00;;;6.85;89.42
19751;BME280;4663;49.120;9.730;2023-05-03T02:37:41;98873.19;;;6.65;90.02
19751;BME280;4663;49.120;9.730;2023-05-03T02:40:07;98873.34;;;6.75;89.52
19751;BME280;4663;49.120;9.730;2023-05-03T02:42:33;98878.84;;;6.85;89.50
19751;BME280;4663;49.120;9.730;2023-05-03T02:44:59;98872.97;;;6.69;90.21
19751;BME280;4663;49.120;9.730;2023-05-03T02:47:24;98865.25;;;6.77;88.57
19751;BME280;4663;49.120;9.730;2023-05-03T02:49:50;98862.19;;;6.46;90.43
19751;BME280;4663;49.120;9.730;2023-05-03T02:52:15;98855.66;;;6.50;89.76
19751;BME280;4663;49.120;9.730;2023-05-03T02:54:40;98860.72;;;6.66;88.72
19751;BME280;4663;49.120;9.730;2023-05-03T02:57:06;98862.31;;;6.44;89.71
19751;BME280;4663;49.120;9.730;2023-05-03T02:59:31;98861.00;;;6.50;91.03
19751;BME280;4663;49.120;9.730;2023-05-03T03:01:57;98861.78;;;6.39;90.66
19751;BME280;4663;49.120;9.730;2023-05-03T03:04:24;98866.41;;;6.37;90.73
19751;BME280;4663;49.120;9.730;2023-05-03T03:06:49;98866.84;;;6.31;91.02
19751;BME280;4663;49.120;9.730;2023-05-03T03:09:17;98866.38;;;6.61;89.39
19751;BME280;4663;49.120;9.730;2023-05-03T03:11:43;98866.56;;;6.47;89.22
19751;BME280;4663;49.120;9.730;2023-05-03T03:14:08;98873.72;;;6.46;89.40
19751;BME280;4663;49.120;9.730;2023-05-03T03:16:34;98867.22;;;6.37;88.92
19751;BME280;4663;49.120;9.730;2023-05-03T03:18:59;98875.97;;;6.39;89.50
19751;BME280;4663;49.120;9.730;2023-05-03T03:21:24;98879.06;;;6.09;90.76
19751;BME280;4663;49.120;9.730;2023-05-03T03:23:52;98867.97;;;6.39;89.13
19751;BME280;4663;49.120;9.730;2023-05-03T03:26:18;98883.31;;;6.11;90.10
19751;BME280;4663;49.120;9.730;2023-05-03T03:28:43;98888.84;;;6.08;91.99
19751;BME280;4663;49.120;9.730;2023-05-03T03:31:08;98877.38;;;6.32;89.57
19751;BME280;4663;49.120;9.730;2023-05-03T03:33:34;98869.59;;;6.29;89.74
19751;BME280;4663;49.120;9.730;2023-05-03T03:35:59;98863.31;;;6.30;89.50
19751;BME280;4663;49.120;9.730;2023-05-03T03:38:25;98873.75;;;5.96;91.36
19751;BME280;4663;49.120;9.730;2023-05-03T03:40:50;98875.16;;;6.26;89.53
19751;BME280;4663;49.120;9.730;2023-05-03T03:43:16;98863.19;;;6.32;89.28
19751;BME280;4663;49.120;9.730;2023-05-03T03:45:42;98866.03;;;6.17;89.25
19751;BME280;4663;49.120;9.730;2023-05-03T03:48:07;98873.16;;;6.17;89.33
19751;BME280;4663;49.120;9.730;2023-05-03T03:50:32;98883.00;;;6.40;88.34
19751;BME280;4663;49.120;9.730;2023-05-03T03:52:58;98872.75;;;6.47;87.64
19751;BME280;4663;49.120;9.730;2023-05-03T03:55:23;98885.03;;;5.99;89.44
19751;BME280;4663;49.120;9.730;2023-05-03T03:57:48;98883.53;;;6.08;90.18
19751;BME280;4663;49.120;9.730;2023-05-03T04:00:14;98889.47;;;6.12;89.19
19751;BME280;4663;49.120;9.730;2023-05-03T04:02:40;98885.88;;;6.13;89.21
19751;BME280;4663;49.120;9.730;2023-05-03T04:05:06;98891.69;;;5.81;90.34
19751;BME280;4663;49.120;9.730;2023-05-03T04:07:32;98895.06;;;6.09;90.09
19751;BME280;4663;49.120;9.730;2023-05-03T04:09:57;98889.19;;;6.03;89.75
19751;BME280;4663;49.120;9.730;2023-05-03T04:12:23;98889.03;;;6.18;87.95
19751;BME280;4663;49.120;9.730;2023-05-03T04:14:48;98894.63;;;6.02;88.26
19751;BME280;4663;49.120;9.730;2023-05-03T04:17:14;98901.03;;;5.86;90.44
19751;BME280;4663;49.120;9.730;2023-05-03T04:19:39;98901.38;;;5.95;90.29
19751;BME280;4663;49.120;9.730;2023-05-03T04:22:04;98903.97;;;6.21;89.09
19751;BME280;4663;49.120;9.730;2023-05-03T04:24:30;98906.44;;;5.98;89.81
19751;BME280;4663;49.120;9.730;2023-05-03T04:26:55;98905.66;;;6.22;90.29
19751;BME280;4663;49.120;9.730;2023-05-03T04:29:23;98915.31;;;5.98;90.88
19751;BME280;4663;49.120;9.730;2023-05-03T04:31:48;98916.13;;;6.12;91.00
19751;BME280;4663;49.120;9.730;2023-05-03T04:34:13;98913.50;;;6.36;91.15
19751;BME280;4663;49.120;9.730;2023-05-03T04:36:40;98918.25;;;6.57;90.23
19751;BME280;4663;49.120;9.730;2023-05-03T04:39:15;98919.78;;;6.73;89.55
19751;BME280;4663;49.120;9.730;2023-05-03T04:41:40;98923.81;;;7.03;88.64
19751;BME280;4663;49.120;9.730;2023-05-03T04:44:06;98925.75;;;7.12;87.08
19751;BME280;4663;49.120;9.730;2023-05-03T04:46:32;98932.22;;;7.21;86.42
19751;BME280;4663;49.120;9.730;2023-05-03T04:48:57;98929.63;;;7.08;86.46
19751;BME280;4663;49.120;9.730;2023-05-03T04:51:23;98933.38;;;7.30;86.85
19751;BME280;4663;49.120;9.730;2023-05-03T04:53:48;98934.31;;;7.29;86.57
19751;BME280;4663;49.120;9.730;2023-05-03T04:56:14;98935.44;;;7.38;86.72
19751;BME280;4663;49.120;9.730;2023-05-03T04:58:39;98928.50;;;7.35;86.11
19751;BME280;4663;49.120;9.730;2023-05-03T05:01:05;98927.09;;;7.42;87.10
19751;BME280;4663;49.120;9.730;2023-05-03T05:03:31;98934.16;;;7.55;85.82
19751;BME280;4663;49.120;9.730;2023-05-03T05:05:57;98936.78;;;7.43;86.14
19751;BME280;4663;49.120;9.730;2023-05-03T05:08:22;98946.09;;;7.62;85.80
19751;BME280;4663;49.120;9.730;2023-05-03T05:10:47;98944.63;;;7.81;86.02
19751;BME280;4663;49.120;9.730;2023-05-03T05:13:13;98942.22;;;7.78;85.63
19751;BME280;4663;49.120;9.730;2023-05-03T05:15:39;98943.31;;;7.87;86.59
19751;BME280;4663;49.120;9.730;2023-05-03T05:18:04;98935.53;;;7.95;86.68
19751;BME280;4663;49.120;9.730;2023-05-03T05:20:29;98942.97;;;8.14;86.44
19751;BME280;4663;49.120;9.730;2023-05-03T05:22:55;98934.94;;;7.80;86.81
19751;BME280;4663;49.120;9.730;2023-05-03T05:25:20;98942.22;;;8.01;85.88
19751;BME280;4663;49.120;9.730;2023-05-03T05:27:46;98947.81;;;8.20;85.44
19751;BME280;4663;49.120;9.730;2023-05-03T05:30:11;98948.53;;;7.77;86.89
19751;BME280;4663;49.120;9.730;2023-05-03T05:32:37;98958.03;;;8.15;86.51
19751;BME280;4663;49.120;9.730;2023-05-03T05:35:02;98953.66;;;7.91;86.27
19751;BME280;4663;49.120;9.730;2023-05-03T05:37:28;98948.31;;;8.03;85.77
19751;BME280;4663;49.120;9.730;2023-05-03T05:39:53;98954.13;;;7.96;85.42
19751;BME280;4663;49.120;9.730;2023-05-03T05:42:19;98962.38;;;8.39;86.02
19751;BME280;4663;49.120;9.730;2023-05-03T05:44:45;98956.78;;;8.65;85.19
19751;BME280;4663;49.120;9.730;2023-05-03T05:47:10;98951.56;;;8.96;84.09
19751;BME280;4663;49.120;9.730;2023-05-03T05:49:36;98955.44;;;9.36;82.78
19751;BME280;4663;49.120;9.730;2023-05-03T05:52:02;98949.75;;;9.30;81.95
19751;BME280;4663;49.120;9.730;2023-05-03T05:54:27;98956.03;;;10.14;83.26
19751;BME280;4663;49.120;9.730;2023-05-03T05:56:52;98943.16;;;10.08;79.18
19751;BME280;4663;49.120;9.730;2023-05-03T05:59:18;98948.75;;;10.26;79.77
19751;BME280;4663;49.120;9.730;2023-05-03T06:01:44;98934.63;;;10.75;78.10
19751;BME280;4663;49.120;9.730;2023-05-03T06:04:13;98944.50;;;10.64;78.59
19751;BME280;4663;49.120;9.730;2023-05-03T06:06:39;98935.50;;;11.15;76.75
19751;BME280;4663;49.120;9.730;2023-05-03T06:09:04;98940.69;;;10.77;75.93
19751;BME280;4663;49.120;9.730;2023-05-03T06:11:30;98952.16;;;10.38;79.35
19751;BME280;4663;49.120;9.730;2023-05-03T06:13:56;98944.28;;;11.07;77.65
19751;BME280;4663;49.120;9.730;2023-05-03T06:16:22;98937.06;;;11.27;75.98
19751;BME280;4663;49.120;9.730;2023-05-03T06:18:47;98947.03;;;12.23;77.37
19751;BME280;4663;49.120;9.730;2023-05-03T06:21:13;98926.28;;;12.43;72.05
19751;BME280;4663;49.120;9.730;2023-05-03T06:23:38;98948.59;;;12.53;75.20
19751;BME280;4663;49.120;9.730;2023-05-03T06:26:04;98940.13;;;11.82;73.69
19751;BME280;4663;49.120;9.730;2023-05-03T06:28:29;98937.28;;;11.84;74.01
19751;BME280;4663;49.120;9.730;2023-05-03T06:30:55;98943.06;;;11.69;75.04
19751;BME280;4663;49.120;9.730;2023-05-03T06:33:20;98944.69;;;12.10;74.49
19751;BME280;4663;49.120;9.730;2023-05-03T06:35:45;98932.53;;;12.05;72.95
19751;BME280;4663;49.120;9.730;2023-05-03T06:38:16;98939.31;;;12.84;72.27
19751;BME280;4663;49.120;9.730;2023-05-03T06:40:43;98935.22;;;12.62;71.70
19751;BME280;4663;49.120;9.730;2023-05-03T06:43:09;98937.91;;;12.62;72.90
19751;BME280;4663;49.120;9.730;2023-05-03T06:45:34;98945.16;;;13.26;72.49
19751;BME280;4663;49.120;9.730;2023-05-03T06:48:00;98924.56;;;13.43;70.67
19751;BME280;4663;49.120;9.730;2023-05-03T06:50:25;98927.81;;;13.28;70.25
19751;BME280;4663;49.120;9.730;2023-05-03T06:52:52;98943.22;;;12.71;71.42
19751;BME280;4663;49.120;9.730;2023-05-03T06:55:18;98949.59;;;13.80;72.38
19751;BME280;4663;49.120;9.730;2023-05-03T06:57:43;98916.72;;;14.37;69.26
19751;BME280;4663;49.120;9.730;2023-05-03T07:00:12;98927.47;;;13.05;70.26
19751;BME280;4663;49.120;9.730;2023-05-03T07:02:37;98926.56;;;13.41;71.29
19751;BME280;4663;49.120;9.730;2023-05-03T07:05:03;98925.69;;;13.58;70.08
19751;BME280;4663;49.120;9.730;2023-05-03T07:07:28;98927.00;;;13.54;70.06
19751;BME280;4663;49.120;9.730;2023-05-03T07:09:54;98921.34;;;13.21;70.51
19751;BME280;4663;49.120;9.730;2023-05-03T07:12:19;98922.66;;;13.17;70.35
19751;BME280;4663;49.120;9.730;2023-05-03T07:14:44;98918.22;;;13.07;71.54
19751;BME280;4663;49.120;9.730;2023-05-03T07:17:10;98910.78;;;13.72;70.05
19751;BME280;4663;49.120;9.730;2023-05-03T07:19:35;98909.56;;;13.67;70.04
19751;BME280;4663;49.120;9.730;2023-05-03T07:22:02;98914.72;;;13.33;70.79
19751;BME280;4663;49.120;9.730;2023-05-03T07:24:28;98903.66;;;14.24;68.98
19751;BME280;4663;49.120;9.730;2023-05-03T07:26:53;98912.03;;;14.13;69.60
19751;BME280;4663;49.120;9.730;2023-05-03T07:29:19;98911.31;;;13.76;69.51
19751;BME280;4663;49.120;9.730;2023-05-03T07:31:45;98917.56;;;15.14;69.02
19751;BME280;4663;49.120;9.730;2023-05-03T07:34:13;98899.22;;;16.40;68.13
19751;BME280;4663;49.120;9.730;2023-05-03T07:36:38;98905.59;;;16.79;65.85
19751;BME280;4663;49.120;9.730;2023-05-03T07:39:05;98902.06;;;16.47;64.65
19751;BME280;4663;49.120;9.730;2023-05-03T07:41:31;98884.28;;;16.04;63.39
19751;BME280;4663;49.120;9.730;2023-05-03T07:43:56;98893.47;;;15.86;64.80
19751;BME280;4663;49.120;9.730;2023-05-03T07:46:22;98889.66;;;15.55;64.87
19751;BME280;4663;49.120;9.730;2023-05-03T07:48:48;98892.06;;;16.15;64.63
19751;BME280;4663;49.120;9.730;2023-05-03T07:51:13;98895.22;;;16.59;63.99
19751;BME280;4663;49.120;9.730;2023-05-03T07:53:39;98904.59;;;16.00;65.05
19751;BME280;4663;49.120;9.730;2023-05-03T07:56:05;98902.19;;;15.40;64.89
19751;BME280;4663;49.120;9.730;2023-05-03T07:58:31;98903.97;;;16.69;65.40
19751;BME280;4663;49.120;9.730;2023-05-03T08:00:56;98881.66;;;16.36;63.20
19751;BME280;4663;49.120;9.730;2023-05-03T08:03:22;98870.75;;;16.21;63.35
19751;BME280;4663;49.120;9.730;2023-05-03T08:05:48;98882.31;;;15.89;64.99
19751;BME280;4663;49.120;9.730;2023-05-03T08:08:13;98880.91;;;16.50;63.69
19751;BME280;4663;49.120;9.730;2023-05-03T08:10:39;98896.34;;;16.41;65.17
19751;BME280;4663;49.120;9.730;2023-05-03T08:13:05;98883.31;;;17.92;64.36
19751;BME280;4663;49.120;9.730;2023-05-03T08:15:31;98886.72;;;17.56;63.96
19751;BME280;4663;49.120;9.730;2023-05-03T08:17:56;98859.59;;;17.86;60.45
19751;BME280;4663;49.120;9.730;2023-05-03T08:20:21;98864.38;;;16.92;62.51
19751;BME280;4663;49.120;9.730;2023-05-03T08:22:47;98870.41;;;16.15;64.87
19751;BME280;4663;49.120;9.730;2023-05-03T08:25:13;98864.97;;;16.15;62.87
19751;BME280;4663;49.120;9.730;2023-05-03T08:27:41;98856.47;;;17.29;62.28
19751;BME280;4663;49.120;9.730;2023-05-03T08:30:07;98867.91;;;18.45;62.55
19751;BME280;4663;49.120;9.730;2023-05-03T08:32:32;98870.38;;;17.26;61.29
19751;BME280;4663;49.120;9.730;2023-05-03T08:34:58;98873.69;;;16.34;62.95
19751;BME280;4663;49.120;9.730;2023-05-03T08:37:24;98904.59;;;16.80;65.13
19751;BME280;4663;49.120;9.730;2023-05-03T08:39:49;98879.53;;;16.78;62.78
19751;BME280;4663;49.120;9.730;2023-05-03T08:42:15;98888.75;;;17.92;63.38
19751;BME280;4663;49.120;9.730;2023-05-03T08:44:45;98876.94;;;18.15;61.00
19751;BME280;4663;49.120;9.730;2023-05-03T08:47:14;98877.53;;;17.95;61.09
19751;BME280;4663;49.120;9.730;2023-05-03T08:49:41;98862.78;;;18.20;60.17
19751;BME280;4663;49.120;9.730;2023-05-03T08:52:09;98876.25;;;18.43;60.27
19751;BME280;4663;49.120;9.730;2023-05-03T08:54:37;98900.75;;;17.21;62.55
19751;BME280;4663;49.120;9.730;2023-05-03T08:57:03;98873.25;;;17.47;60.30
19751;BME280;4663;49.120;9.730;2023-05-03T08:59:28;98896.78;;;17.32;63.02
19751;BME280;4663;49.120;9.730;2023-05-03T09:01:54;98887.59;;;18.32;61.41
19751;BME280;4663;49.120;9.730;2023-05-03T09:04:25;98877.59;;;17.87;60.15
19751;BME280;4663;49.120;9.730;2023-05-03T09:07:11;98893.53;;;18.57;62.35
19751;BME280;4663;49.120;9.730;2023-05-03T09:09:37;98874.81;;;17.95;60.50
19751;BME280;4663;49.120;9.730;2023-05-03T09:12:03;98889.38;;;17.94;62.48
19751;BME280;4663;49.120;9.730;2023-05-03T09:14:29;98883.75;;;18.26;60.21
19751;BME280;4663;49.120;9.730;2023-05-03T09:16:55;98878.88;;;19.17;59.64
19751;BME280;4663;49.120;9.730;2023-05-03T09:19:52;98885.09;;;19.33;59.15
19751;BME280;4663;49.120;9.730;2023-05-03T09:22:18;98888.16;;;19.23;59.41
19751;BME280;4663;49.120;9.730;2023-05-03T09:25:02;98903.22;;;20.11;60.72
19751;BME280;4663;49.120;9.730;2023-05-03T09:27:28;98855.81;;;20.41;55.33
19751;BME280;4663;49.120;9.730;2023-05-03T09:29:54;98882.25;;;18.97;58.79
19751;BME280;4663;49.120;9.730;2023-05-03T09:32:20;98876.59;;;17.88;60.11
19751;BME280;4663;49.120;9.730;2023-05-03T09:34:49;98889.09;;;17.20;61.90
19751;BME280;4663;49.120;9.730;2023-05-03T09:37:14;98887.03;;;16.76;62.59
19751;BME280;4663;49.120;9.730;2023-05-03T09:39:41;98879.44;;;17.18;63.22
19751;BME280;4663;49.120;9.730;2023-05-03T09:47:06;98863.22;;;17.33;61.08
19751;BME280;4663;49.120;9.730;2023-05-03T09:49:32;98875.63;;;17.66;62.04
19751;BME280;4663;49.120;9.730;2023-05-03T09:51:58;98877.22;;;17.37;62.31
19751;BME280;4663;49.120;9.730;2023-05-03T09:54:24;98855.06;;;16.39;61.55
19751;BME280;4663;49.120;9.730;2023-05-03T09:56:51;98876.38;;;19.15;61.94
19751;BME280;4663;49.120;9.730;2023-05-03T09:59:19;98857.66;;;19.06;58.61
19751;BME280;4663;49.120;9.730;2023-05-03T10:01:45;98847.75;;;18.54;58.06
19751;BME280;4663;49.120;9.730;2023-05-03T10:04:14;98841.00;;;18.13;58.20
19751;BME280;4663;49.120;9.730;2023-05-03T10:06:40;98861.38;;;18.24;60.92
19751;BME280;4663;49.120;9.730;2023-05-03T10:09:14;98847.09;;;18.15;59.76
19751;BME280;4663;49.120;9.730;2023-05-03T10:11:46;98843.44;;;17.63;59.63
19751;BME280;4663;49.120;9.730;2023-05-03T10:14:13;98855.44;;;16.83;60.68
19751;BME280;4663;49.120;9.730;2023-05-03T10:16:42;98844.97;;;17.27;60.56
19751;BME280;4663;49.120;9.730;2023-05-03T10:19:28;98840.25;;;18.19;58.75
19751;BME280;4663;49.120;9.730;2023-05-03T10:24:31;98836.97;;;17.64;59.37
19751;BME280;4663;49.120;9.730;2023-05-03T10:26:58;98839.28;;;16.98;60.49
19751;BME280;4663;49.120;9.730;2023-05-03T10:35:12;98847.75;;;17.18;61.08
19751;BME280;4663;49.120;9.730;2023-05-03T10:37:40;98828.47;;;17.97;60.22
19751;BME280;4663;49.120;9.730;2023-05-03T10:40:07;98820.94;;;18.14;58.75
19751;BME280;4663;49.120;9.730;2023-05-03T10:42:34;98829.31;;;17.82;59.95
19751;BME280;4663;49.120;9.730;2023-05-03T10:45:00;98841.75;;;18.07;60.14
19751;BME280;4663;49.120;9.730;2023-05-03T10:47:27;98830.06;;;19.31;58.48
19751;BME280;4663;49.120;9.730;2023-05-03T10:57:36;98814.13;;;18.99;56.38
19751;BME280;4663;49.120;9.730;2023-05-03T11:00:04;98846.53;;;19.22;58.94
19751;BME280;4663;49.120;9.730;2023-05-03T11:02:41;98824.91;;;19.43;56.82
19751;BME280;4663;49.120;9.730;2023-05-03T11:05:12;98798.06;;;19.33;54.95
19751;BME280;4663;49.120;9.730;2023-05-03T11:07:39;98810.78;;;18.97;55.27
19751;BME280;4663;49.120;9.730;2023-05-03T11:10:17;98820.69;;;18.83;56.89
19751;BME280;4663;49.120;9.730;2023-05-03T11:12:43;98817.06;;;20.39;55.72
19751;BME280;4663;49.120;9.730;2023-05-03T11:15:09;98803.03;;;20.42;55.81
19751;BME280;4663;49.120;9.730;2023-05-03T11:17:36;98821.16;;;19.15;57.28
19751;BME280;4663;49.120;9.730;2023-05-03T11:20:05;98798.75;;;18.69;56.49
19751;BME280;4663;49.120;9.730;2023-05-03T11:22:33;98800.53;;;18.99;57.16
19751;BME280;4663;49.120;9.730;2023-05-03T11:24:59;98791.53;;;18.98;56.04
19751;BME280;4663;49.120;9.730;2023-05-03T11:27:24;98778.22;;;18.60;55.29
19751;BME280;4663;49.120;9.730;2023-05-03T11:29:50;98785.66;;;18.73;56.13
19751;BME280;4663;49.120;9.730;2023-05-03T11:32:17;98780.59;;;19.84;55.50
19751;BME280;4663;49.120;9.730;2023-05-03T11:34:43;98758.38;;;19.45;54.29
19751;BME280;4663;49.120;9.730;2023-05-03T11:37:10;98771.63;;;18.47;56.56
19751;BME280;4663;49.120;9.730;2023-05-03T11:39:35;98767.50;;;19.02;55.80
19751;BME280;4663;49.120;9.730;2023-05-03T11:42:04;98780.09;;;19.10;55.83
19751;BME280;4663;49.120;9.730;2023-05-03T11:44:29;98777.38;;;18.81;55.59
19751;BME280;4663;49.120;9.730;2023-05-03T11:46:55;98768.06;;;18.91;54.82
19751;BME280;4663;49.120;9.730;2023-05-03T11:49:22;98773.00;;;19.09;55.02
19751;BME280;4663;49.120;9.730;2023-05-03T11:51:49;98772.59;;;19.40;54.49
19751;BME280;4663;49.120;9.730;2023-05-03T11:54:15;98768.31;;;18.30;55.61
19751;BME280;4663;49.120;9.730;2023-05-03T11:56:41;98782.72;;;17.94;57.08
19751;BME280;4663;49.120;9.730;2023-05-03T11:59:07;98770.00;;;18.97;55.74
19751;BME280;4663;49.120;9.730;2023-05-03T12:01:32;98787.56;;;20.07;56.35
19751;BME280;4663;49.120;9.730;2023-05-03T12:04:00;98753.47;;;19.62;54.13
19751;BME280;4663;49.120;9.730;2023-05-03T12:06:35;98742.47;;;19.07;54.22
19751;BME280;4663;49.120;9.730;2023-05-03T12:09:02;98767.38;;;19.10;55.95
19751;BME280;4663;49.120;9.730;2023-05-03T12:11:27;98779.41;;;19.58;56.21
19751;BME280;4663;49.120;9.730;2023-05-03T12:13:57;98736.31;;;19.62;53.12
19751;BME280;4663;49.120;9.730;2023-05-03T12:16:24;98779.34;;;20.49;55.18
19751;BME280;4663;49.120;9.730;2023-05-03T12:18:57;98767.25;;;20.86;54.47
19751;BME280;4663;49.120;9.730;2023-05-03T12:21:42;98748.50;;;19.66;54.31
19751;BME280;4663;49.120;9.730;2023-05-03T12:24:08;98736.22;;;19.48;53.83
19751;BME280;4663;49.120;9.730;2023-05-03T12:26:34;98744.19;;;18.64;55.06
19751;BME280;4663;49.120;9.730;2023-05-03T12:28:59;98766.13;;;19.13;56.23
19751;BME280;4663;49.120;9.730;2023-05-03T12:31:25;98757.59;;;19.51;56.24
19751;BME280;4663;49.120;9.730;2023-05-03T12:33:50;98741.34;;;20.34;54.35
19751;BME280;4663;49.120;9.730;2023-05-03T12:36:16;98734.94;;;20.76;53.69
19751;BME280;4663;49.120;9.730;2023-05-03T12:38:41;98729.38;;;20.08;53.80
19751;BME280;4663;49.120;9.730;2023-05-03T12:41:07;98718.63;;;19.44;53.69
19751;BME280;4663;49.120;9.730;2023-05-03T12:43:32;98714.03;;;18.81;54.04
19751;BME280;4663;49.120;9.730;2023-05-03T12:45:57;98724.59;;;19.61;53.54
19751;BME280;4663;49.120;9.730;2023-05-03T12:48:26;98722.84;;;19.18;53.76
19751;BME280;4663;49.120;9.730;2023-05-03T12:50:52;98731.91;;;19.25;54.51
19751;BME280;4663;49.120;9.730;2023-05-03T12:53:19;98724.78;;;19.24;54.02
19751;BME280;4663;49.120;9.730;2023-05-03T12:55:45;98713.31;;;19.29;52.91
19751;BME280;4663;49.120;9.730;2023-05-03T12:58:10;98715.94;;;19.15;53.38
19751;BME280;4663;49.120;9.730;2023-05-03T13:00:36;98728.03;;;19.06;54.63
19751;BME280;4663;49.120;9.730;2023-05-03T13:03:01;98741.66;;;19.48;55.14
19751;BME280;4663;49.120;9.730;2023-05-03T13:05:28;98723.88;;;20.01;53.06
19751;BME280;4663;49.120;9.730;2023-05-03T13:07:53;98707.94;;;19.43;53.45
19751;BME280;4663;49.120;9.730;2023-05-03T13:10:19;98697.47;;;19.04;53.48
19751;BME280;4663;49.120;9.730;2023-05-03T13:12:44;98706.38;;;18.69;53.57
19751;BME280;4663;49.120;9.730;2023-05-03T13:15:10;98709.78;;;19.35;53.80
19751;BME280;4663;49.120;9.730;2023-05-03T13:17:36;98715.91;;;19.09;54.60
19751;BME280;4663;49.120;9.730;2023-05-03T13:20:02;98715.00;;;19.72;54.86
19751;BME280;4663;49.120;9.730;2023-05-03T13:22:31;98686.06;;;19.58;52.37
19751;BME280;4663;49.120;9.730;2023-05-03T13:24:56;98692.72;;;18.56;54.22
19751;BME280;4663;49.120;9.730;2023-05-03T13:27:22;98673.63;;;18.99;52.08
19751;BME280;4663;49.120;9.730;2023-05-03T13:29:47;98687.28;;;18.56;53.75
19751;BME280;4663;49.120;9.730;2023-05-03T13:32:13;98685.22;;;19.15;53.61
19751;BME280;4663;49.120;9.730;2023-05-03T13:34:38;98680.41;;;19.17;52.44
19751;BME280;4663;49.120;9.730;2023-05-03T13:37:04;98683.44;;;19.00;53.23